METAR AND TAF INFORMATION
METAR FOR LPPR
ADDS - METARS form results

(0017 UTC 24 January 2019)
Data provider http://aviationweather.gov/metar/data/
 
METAR text: LPPR 240000Z 34011KT 6000 -DZ BKN006 BKN013 13/12 Q1018
Conditions at: LPPR (PORTO/PEDRAS RUB, PT) observed 0000 UTC 24 January 2019
Temperature: 13.0°C (55°F)
Dewpoint: 12.0°C (54°F) [RH = 94%]
Pressure (altimeter): 30.06 inches Hg (1018.0 mb)
Winds: from the NNW (340 degrees) at 13 MPH (11 knots; 5.7 m/s)
Visibility: 4 miles ( 6 km)
Ceiling: 600 feet AGL
Clouds: broken clouds at 600 feet AGL
broken clouds at 1300 feet AGL
Weather: -DZ  (light drizzle)

METAR text: LPPR 232330Z 34012KT 9999 BKN008 BKN015 13/12 Q1018
Conditions at: LPPR (PORTO/PEDRAS RUB, PT) observed 2330 UTC 23 January 2019
Temperature: 13.0°C (55°F)
Dewpoint: 12.0°C (54°F) [RH = 94%]
Pressure (altimeter): 30.06 inches Hg (1018.0 mb)
Winds: from the NNW (340 degrees) at 14 MPH (12 knots; 6.2 m/s)
Visibility: 6 or more miles (10+ km)
Ceiling: 800 feet AGL
Clouds: broken clouds at 800 feet AGL
broken clouds at 1500 feet AGL
Weather: no significant weather observed at this time

Forecast for: LPPR (PORTO/PEDRAS RUB, PT)
Text: TAF LPPR 232300Z 2400/2424 34013KT 9999 SCT006 BKN012
Forecast period: 0000 to 0900 UTC 24 January 2019
Forecast type: FROM: standard forecast or significant change
Winds: from the NNW (340 degrees) at 15 MPH (13 knots; 6.7 m/s)
Visibility: 6 or more miles 10+ km)
Ceiling: 1200 feet AGL
Clouds: scattered clouds at 600 feet AGL
broken clouds at 1200 feet AGL
Weather: no significant weather forecast for this period
Text: TEMPO 2400/2409 4000 -RADZ BR SCT003 BKN006
Forecast period: 0000 to 0900 UTC 24 January 2019
Forecast type: TEMPORARY: The following changes expected for less than half the time period
Visibility: 2.49 miles (4.01 km)
Ceiling: 600 feet AGL
Clouds: scattered clouds at 300 feet AGL
broken clouds at 600 feet AGL
Weather: -RA -DZ BR  (light rain, light drizzle, mist)
Text: BECMG 2409/2412 FEW020
Forecast period: 0900 UTC 24 January 2019 to 0000 UTC 25 January 2019
Forecast type: BECOMING: Conditions expected to become as follows by 1200 UTC 24 January 2019
Winds: from the NNW (340 degrees) at 15 MPH (13 knots; 6.7 m/s)
Visibility: 6 or more miles 10+ km)
Ceiling: at least 12,000 feet AGL
Clouds: few clouds at 2000 feet AGL
Weather: no significant weather forecast for this period

AIRPORT MAP

RUNWAY INFORMATION
Runway 17 Runway length 11417 ft Runway width 148 ft
Runway elevation 151 ft Runway displaced threshold 984 ft Runway heading 169
Runway 35 Runway length 11417 ft Runway width 148 ft
Runway elevation 226 ft Runway displaced threshold 492 ft Runway heading 349

AIRPORT FREQUENCIES
Type APP Name APP Frequency 121.1 MHZ
Type ATIS Name ATIS Frequency 124.3 MHZ
Type TWR Name TWR Frequency 118 MHZ

AIRPORT NEAR NAVIGATION AIDS
Type NDB Name Porto Frequency 367 KHZ
Type NDB Name Porto Frequency 327 KHZ
Type VOR-DME Name Porto Frequency 114100 KHZ